createdAt,value
2016-09-22T00:00:05.730Z,8.63
2016-09-22T00:01:05.714Z,8.62
2016-09-22T00:02:05.712Z,8.56
2016-09-22T00:03:05.695Z,8.52
2016-09-22T00:04:05.693Z,8.44
2016-09-22T00:05:07.334Z,8.43
2016-09-22T00:06:06.458Z,8.44
2016-09-22T00:07:05.667Z,8.41
2016-09-22T00:08:05.661Z,8.4
2016-09-22T00:09:05.648Z,8.36
2016-09-22T00:10:06.227Z,8.43
2016-09-22T00:11:05.639Z,8.29
2016-09-22T00:12:05.623Z,8.34
2016-09-22T00:13:05.618Z,8.29
2016-09-22T00:14:05.613Z,8.25
2016-09-22T00:15:05.606Z,8.33
2016-09-22T00:16:05.590Z,8.19
2016-09-22T00:17:05.584Z,8.19
2016-09-22T00:18:05.584Z,8.25
2016-09-22T00:19:05.567Z,8.26
2016-09-22T00:20:05.561Z,8.12
2016-09-22T00:21:05.550Z,8.15
2016-09-22T00:22:05.540Z,8.16
2016-09-22T00:23:05.547Z,8.04
2016-09-22T00:24:05.526Z,8.05
2016-09-22T00:25:05.520Z,8.02
2016-09-22T00:26:05.503Z,8.02
2016-09-22T00:27:05.495Z,8.02
2016-09-22T00:28:05.487Z,8.05
2016-09-22T00:29:05.485Z,8.04
2016-09-22T00:30:05.476Z,7.98
2016-09-22T00:31:05.467Z,7.95
2016-09-22T00:32:05.467Z,7.95
2016-09-22T00:33:05.450Z,7.97
2016-09-22T00:34:05.436Z,7.95
2016-09-22T00:35:05.425Z,7.93
2016-09-22T00:36:05.428Z,7.92
2016-09-22T00:37:05.419Z,7.92
2016-09-22T00:38:05.411Z,7.85
2016-09-22T00:39:05.397Z,7.89
2016-09-22T00:40:05.390Z,7.83
2016-09-22T00:41:05.378Z,7.86
2016-09-22T00:42:05.375Z,7.79
2016-09-22T00:43:05.360Z,7.87
2016-09-22T00:44:05.357Z,7.79
2016-09-22T00:45:05.343Z,7.75
2016-09-22T00:46:06.134Z,7.82
2016-09-22T00:47:21.136Z,7.69
2016-09-22T00:48:05.317Z,7.75
2016-09-22T00:49:06.110Z,7.71
2016-09-22T00:50:05.297Z,7.68
2016-09-22T00:51:05.291Z,7.72
2016-09-22T00:52:05.285Z,7.68
2016-09-22T00:53:05.277Z,7.69
2016-09-22T00:54:05.317Z,7.69
2016-09-22T00:55:05.658Z,7.64
2016-09-22T00:56:05.393Z,7.67
2016-09-22T00:57:06.187Z,7.58
2016-09-22T00:58:05.376Z,7.6
2016-09-22T00:59:06.177Z,7.69
2016-09-22T01:00:05.209Z,7.6
2016-09-22T01:01:05.459Z,7.57
2016-09-22T01:02:05.199Z,7.53
2016-09-22T01:03:05.191Z,7.6
2016-09-22T01:04:05.183Z,7.6
2016-09-22T01:05:05.163Z,7.52
2016-09-22T01:06:05.158Z,7.45
2016-09-22T01:07:05.147Z,7.55
2016-09-22T01:08:05.142Z,7.55
2016-09-22T01:09:05.137Z,7.6
2016-09-22T01:10:05.130Z,7.53
2016-09-22T01:11:05.115Z,7.49
2016-09-22T01:12:05.107Z,7.49
2016-09-22T01:13:05.098Z,7.58
2016-09-22T01:14:06.392Z,7.5
2016-09-22T01:15:05.526Z,7.52
2016-09-22T01:16:06.623Z,7.58
2016-09-22T01:17:05.064Z,7.53
2016-09-22T01:18:05.054Z,7.53
2016-09-22T01:19:05.616Z,7.42
2016-09-22T01:20:05.035Z,7.39
2016-09-22T01:21:05.328Z,7.45
2016-09-22T01:22:05.013Z,7.43
2016-09-22T01:23:06.517Z,7.43
2016-09-22T01:24:05.991Z,7.39
2016-09-22T01:25:05.273Z,7.4
2016-09-22T01:26:05.330Z,7.3
2016-09-22T01:27:05.250Z,7.37
2016-09-22T01:28:04.961Z,7.37
2016-09-22T01:29:04.954Z,7.31
2016-09-22T01:30:04.940Z,7.27
2016-09-22T01:31:04.935Z,7.28
2016-09-22T01:32:04.932Z,7.28
2016-09-22T01:33:04.924Z,7.28
2016-09-22T01:34:04.905Z,7.37
2016-09-22T01:35:04.897Z,7.35
2016-09-22T01:36:04.889Z,7.34
2016-09-22T01:37:05.188Z,7.31
2016-09-22T01:38:04.872Z,7.2
2016-09-22T01:39:04.867Z,7.28
2016-09-22T01:40:04.855Z,7.3
2016-09-22T01:41:04.847Z,7.27
2016-09-22T01:42:04.838Z,7.31
2016-09-22T01:43:04.827Z,7.27
2016-09-22T01:44:04.821Z,7.2
2016-09-22T01:45:04.807Z,7.27
2016-09-22T01:46:04.805Z,7.24
2016-09-22T01:47:04.812Z,7.21
2016-09-22T01:48:04.779Z,7.17
2016-09-22T01:49:04.779Z,7.23
2016-09-22T01:50:04.765Z,7.23
2016-09-22T01:51:04.752Z,7.23
2016-09-22T01:52:04.747Z,7.23
2016-09-22T01:53:04.734Z,7.13
2016-09-22T01:54:04.728Z,7.16
2016-09-22T01:55:04.722Z,7.13
2016-09-22T01:56:04.708Z,7.12
2016-09-22T01:57:04.700Z,7.13
2016-09-22T01:58:04.696Z,7.1
2016-09-22T01:59:04.982Z,7.16
2016-09-22T02:00:04.675Z,7.05
2016-09-22T02:01:04.669Z,7.05
2016-09-22T02:02:04.657Z,7.06
2016-09-22T02:03:04.646Z,7.03
2016-09-22T02:05:07.483Z,7.07
2016-09-22T02:06:04.616Z,6.99
2016-09-22T02:07:19.520Z,7.1
2016-09-22T02:08:04.768Z,7.07
2016-09-22T02:09:04.790Z,7.09
2016-09-22T02:10:04.833Z,7.07
2016-09-22T02:11:04.574Z,6.99
2016-09-22T02:12:04.569Z,7.09
2016-09-22T02:13:06.357Z,6.92
2016-09-22T02:14:04.645Z,6.98
2016-09-22T02:15:05.591Z,6.99
2016-09-22T02:16:04.825Z,6.95
2016-09-22T02:17:05.817Z,6.91
2016-09-22T02:18:04.504Z,6.94
2016-09-22T02:19:04.497Z,6.85
2016-09-22T02:20:04.990Z,6.99
2016-09-22T02:21:04.482Z,6.87
2016-09-22T02:22:04.469Z,6.94
2016-09-22T02:23:04.458Z,6.89
2016-09-22T02:24:04.452Z,6.95
2016-09-22T02:25:04.743Z,6.88
2016-09-22T02:26:04.431Z,6.84
2016-09-22T02:27:04.430Z,6.85
2016-09-22T02:28:04.424Z,6.88
2016-09-22T02:29:04.408Z,6.85
2016-09-22T02:30:04.652Z,6.85
2016-09-22T02:31:04.385Z,6.85
2016-09-22T02:33:06.583Z,6.84
2016-09-22T02:34:04.668Z,6.88
2016-09-22T02:35:05.940Z,6.91
2016-09-22T02:36:05.878Z,6.81
2016-09-22T02:37:04.994Z,6.85
2016-09-22T02:38:04.322Z,6.81
2016-09-22T02:39:04.553Z,6.79
2016-09-22T02:40:04.553Z,6.77
2016-09-22T02:41:04.852Z,6.77
2016-09-22T02:42:04.716Z,6.66
2016-09-22T02:43:06.370Z,6.66
2016-09-22T02:44:04.633Z,6.73
2016-09-22T02:45:04.839Z,6.74
2016-09-22T02:46:04.242Z,6.74
2016-09-22T02:47:04.244Z,6.71
2016-09-22T02:48:04.231Z,6.62
2016-09-22T02:49:04.270Z,6.67
2016-09-22T02:50:04.213Z,6.71
2016-09-22T02:51:04.202Z,6.7
2016-09-22T02:52:04.193Z,6.69
2016-09-22T02:53:04.180Z,6.69
2016-09-22T02:54:04.169Z,6.73
2016-09-22T02:55:04.164Z,6.74
2016-09-22T02:56:04.153Z,6.71
2016-09-22T02:57:04.151Z,6.73
2016-09-22T02:58:04.144Z,6.73
2016-09-22T02:59:04.126Z,6.71
2016-09-22T03:00:04.118Z,6.74
2016-09-22T03:01:04.110Z,6.87
2016-09-22T03:02:04.089Z,6.8
2016-09-22T03:03:04.081Z,6.8
2016-09-22T03:04:04.080Z,6.77
2016-09-22T03:05:04.066Z,6.8
2016-09-22T03:06:04.054Z,6.79
2016-09-22T03:07:04.043Z,6.81
2016-09-22T03:08:04.043Z,6.8
2016-09-22T03:09:04.027Z,6.8
2016-09-22T03:10:04.022Z,6.85
2016-09-22T03:11:04.012Z,6.71
2016-09-22T03:12:03.997Z,6.69
2016-09-22T03:13:03.993Z,6.76
2016-09-22T03:14:03.978Z,6.71
2016-09-22T03:15:03.984Z,6.77
2016-09-22T03:16:03.956Z,6.74
2016-09-22T03:17:03.959Z,6.73
2016-09-22T03:18:03.948Z,6.77
2016-09-22T03:19:03.938Z,6.81
2016-09-22T03:20:03.923Z,6.74
2016-09-22T03:21:03.908Z,6.81
2016-09-22T03:22:04.369Z,6.8
2016-09-22T03:23:04.251Z,6.8
2016-09-22T03:24:03.884Z,6.67
2016-09-22T03:25:03.879Z,6.64
2016-09-22T03:26:04.466Z,6.71
2016-09-22T03:27:04.161Z,6.76
2016-09-22T03:28:03.842Z,6.71
2016-09-22T03:29:04.034Z,6.69
2016-09-22T03:30:03.833Z,6.67
2016-09-22T03:31:04.472Z,6.67
2016-09-22T03:32:04.462Z,6.67
2016-09-22T03:33:04.696Z,6.62
2016-09-22T03:34:04.340Z,6.67
2016-09-22T03:35:03.785Z,6.69
2016-09-22T03:36:03.780Z,6.67
2016-09-22T03:37:03.810Z,6.64
2016-09-22T03:38:03.756Z,6.67
2016-09-22T03:39:03.745Z,6.61
2016-09-22T03:40:03.731Z,6.67
2016-09-22T03:41:03.729Z,6.59
2016-09-22T03:42:04.022Z,6.64
2016-09-22T03:43:03.709Z,6.66
2016-09-22T03:44:03.700Z,6.64
2016-09-22T03:45:03.684Z,6.59
2016-09-22T03:46:03.675Z,6.59
2016-09-22T03:47:03.660Z,6.76
2016-09-22T03:48:03.660Z,6.69
2016-09-22T03:49:03.652Z,6.67
2016-09-22T03:51:05.988Z,6.69
2016-09-22T03:52:04.495Z,6.69
2016-09-22T03:53:03.606Z,6.67
2016-09-22T03:54:03.596Z,6.67
2016-09-22T03:55:03.582Z,6.66
2016-09-22T03:56:03.576Z,6.71
2016-09-22T03:57:03.594Z,6.64
2016-09-22T03:58:03.556Z,6.67
2016-09-22T03:59:04.298Z,6.61
2016-09-22T04:00:04.394Z,6.52
2016-09-22T04:01:03.538Z,6.56
2016-09-22T04:02:05.134Z,6.54
2016-09-22T04:03:03.513Z,6.49
2016-09-22T04:04:03.498Z,6.52
2016-09-22T04:05:03.491Z,6.54
2016-09-22T04:06:03.476Z,6.52
2016-09-22T04:07:03.535Z,6.48
2016-09-22T04:08:03.452Z,6.49
2016-09-22T04:09:03.447Z,6.44
2016-09-22T04:10:03.447Z,6.51
2016-09-22T04:11:03.424Z,6.52
2016-09-22T04:12:03.427Z,6.51
2016-09-22T04:13:03.420Z,6.51
2016-09-22T04:14:03.397Z,6.52
2016-09-22T04:15:03.395Z,6.41
2016-09-22T04:16:03.377Z,6.48
2016-09-22T04:17:03.373Z,6.46
2016-09-22T04:18:03.363Z,6.49
2016-09-22T04:19:03.357Z,6.54
2016-09-22T04:20:03.348Z,6.51
2016-09-22T04:21:03.328Z,6.4
2016-09-22T04:22:03.319Z,6.52
2016-09-22T04:23:03.317Z,6.41
2016-09-22T04:24:03.306Z,6.43
2016-09-22T04:25:03.289Z,6.44
2016-09-22T04:26:03.285Z,6.38
2016-09-22T04:27:03.278Z,6.41
2016-09-22T04:28:03.256Z,6.33
2016-09-22T04:29:03.261Z,6.37
2016-09-22T04:30:03.252Z,6.36
2016-09-22T04:31:03.232Z,6.37
2016-09-22T04:32:03.221Z,6.4
2016-09-22T04:33:03.215Z,6.37
2016-09-22T04:34:03.206Z,6.34
2016-09-22T04:35:03.196Z,6.36
2016-09-22T04:36:03.181Z,6.3
2016-09-22T04:37:03.169Z,6.38
2016-09-22T04:38:03.172Z,6.31
2016-09-22T04:39:03.164Z,6.22
2016-09-22T04:40:03.697Z,6.27
2016-09-22T04:41:06.185Z,6.31
2016-09-22T04:42:03.220Z,6.21
2016-09-22T04:43:03.110Z,6.27
2016-09-22T04:44:18.010Z,6.22
2016-09-22T04:45:03.095Z,6.33
2016-09-22T04:46:03.187Z,6.21
2016-09-22T04:47:03.075Z,6.33
2016-09-22T04:48:03.367Z,6.34
2016-09-22T04:49:04.307Z,6.36
2016-09-22T04:50:03.045Z,6.36
2016-09-22T04:52:04.129Z,6.33
2016-09-22T04:53:03.378Z,6.36
2016-09-22T04:54:03.005Z,6.37
2016-09-22T04:55:02.996Z,6.36
2016-09-22T04:56:02.985Z,6.36
2016-09-22T04:57:03.231Z,6.38
2016-09-22T04:58:02.960Z,6.33
2016-09-22T04:59:02.960Z,6.51
2016-09-22T05:00:02.952Z,6.46
2016-09-22T05:01:02.951Z,6.44
2016-09-22T05:02:03.180Z,6.51
2016-09-22T05:03:02.913Z,6.49
2016-09-22T05:04:02.908Z,6.44
2016-09-22T05:05:02.893Z,6.49
2016-09-22T05:06:02.890Z,6.59
2016-09-22T05:07:02.879Z,6.58
2016-09-22T05:08:05.307Z,6.58
2016-09-22T05:10:02.852Z,6.62
2016-09-22T05:11:03.710Z,6.66
2016-09-22T05:12:02.837Z,6.61
2016-09-22T05:13:02.820Z,6.69
2016-09-22T05:14:02.810Z,6.66
2016-09-22T05:15:03.100Z,6.71
2016-09-22T05:16:02.788Z,6.73
2016-09-22T05:17:04.177Z,6.84
2016-09-22T05:18:04.667Z,6.89
2016-09-22T05:19:03.878Z,6.95
2016-09-22T05:20:03.053Z,7.09
2016-09-22T05:21:02.750Z,7.1
2016-09-22T05:22:02.736Z,7.27
2016-09-22T05:23:02.745Z,7.42
2016-09-22T05:24:03.014Z,7.5
2016-09-22T05:25:02.709Z,7.68
2016-09-22T05:26:02.701Z,7.82
2016-09-22T05:27:02.690Z,8.02
2016-09-22T05:28:02.683Z,8.22
2016-09-22T05:29:02.669Z,8.48
2016-09-22T05:30:02.667Z,8.53
2016-09-22T05:31:02.657Z,8.68
2016-09-22T05:32:02.652Z,8.87
2016-09-22T05:33:02.641Z,9.04
2016-09-22T05:34:02.636Z,9.26
2016-09-22T05:35:02.629Z,9.38
2016-09-22T05:36:02.619Z,9.61
2016-09-22T05:37:02.608Z,9.74
2016-09-22T05:38:02.611Z,9.9
2016-09-22T05:39:02.598Z,10.17
2016-09-22T05:40:02.597Z,10.27
2016-09-22T05:41:02.582Z,10.48
2016-09-22T05:42:02.576Z,10.79
2016-09-22T05:43:02.575Z,11.04
2016-09-22T05:44:02.562Z,11.28
2016-09-22T05:45:02.564Z,11.47
2016-09-22T05:46:02.554Z,11.55
2016-09-22T05:47:02.547Z,11.86
2016-09-22T05:48:02.553Z,12.04
2016-09-22T05:49:02.532Z,12.21
2016-09-22T05:50:02.530Z,12.42
2016-09-22T05:51:02.533Z,12.6
2016-09-22T05:52:02.534Z,12.78
2016-09-22T05:53:02.520Z,13.01
2016-09-22T05:54:02.527Z,13.23
2016-09-22T05:55:02.512Z,13.36
2016-09-22T05:56:02.507Z,13.52
2016-09-22T05:57:02.501Z,13.75
2016-09-22T05:58:17.409Z,13.87
2016-09-22T05:59:04.239Z,14.14
2016-09-22T06:00:03.141Z,14.22
2016-09-22T06:01:03.393Z,14.28
2016-09-22T06:02:02.882Z,14.58
2016-09-22T06:03:02.486Z,14.6
2016-09-22T06:04:02.474Z,14.83
2016-09-22T06:05:02.477Z,14.96
2016-09-22T06:06:02.469Z,15.14
2016-09-22T06:07:02.469Z,15.32
2016-09-22T06:08:03.566Z,15.44
2016-09-22T06:09:02.467Z,15.56
2016-09-22T06:10:02.969Z,15.74
2016-09-22T06:11:02.714Z,15.87
2016-09-22T06:12:02.456Z,15.94
2016-09-22T06:13:02.959Z,16.15
2016-09-22T06:14:02.457Z,16.33
2016-09-22T06:15:02.450Z,16.56
2016-09-22T06:16:02.454Z,16.71
2016-09-22T06:17:02.453Z,16.83
2016-09-22T06:18:02.447Z,17.01
2016-09-22T06:19:02.443Z,17.14
2016-09-22T06:20:02.454Z,17.22
2016-09-22T06:21:02.447Z,17.34
2016-09-22T06:22:02.449Z,17.51
2016-09-22T06:23:02.450Z,17.63
2016-09-22T06:24:02.449Z,17.74
2016-09-22T06:25:02.441Z,17.75
2016-09-22T06:26:05.258Z,17.92
2016-09-22T06:27:04.019Z,18.14
2016-09-22T06:28:03.500Z,18.23
2016-09-22T06:29:02.807Z,18.21
2016-09-22T06:30:03.983Z,18.42
2016-09-22T06:31:02.446Z,18.48
2016-09-22T06:32:02.448Z,18.55
2016-09-22T06:33:02.456Z,18.75
2016-09-22T06:34:02.454Z,18.94
2016-09-22T06:36:05.934Z,19.16
2016-09-22T06:37:03.351Z,19.22
2016-09-22T06:38:02.910Z,19.32
2016-09-22T06:39:04.251Z,19.39
2016-09-22T06:40:02.471Z,19.46
2016-09-22T06:41:02.463Z,19.61
2016-09-22T06:42:02.468Z,19.65
2016-09-22T06:43:02.472Z,19.58
2016-09-22T06:44:02.471Z,19.74
2016-09-22T06:45:02.494Z,19.77
2016-09-22T06:46:02.477Z,19.81
2016-09-22T06:47:02.474Z,19.91
2016-09-22T06:48:02.484Z,19.91
2016-09-22T06:49:02.491Z,19.99
2016-09-22T06:50:02.494Z,20.05
2016-09-22T06:51:02.494Z,20.11
2016-09-22T06:52:02.497Z,20.24
2016-09-22T06:53:02.508Z,20.28
2016-09-22T06:54:02.510Z,20.31
2016-09-22T06:55:02.507Z,20.47
2016-09-22T06:56:02.506Z,20.64
2016-09-22T06:57:02.516Z,20.7
2016-09-22T06:58:02.529Z,20.79
2016-09-22T06:59:02.527Z,20.92
2016-09-22T07:00:02.531Z,20.95
2016-09-22T07:01:02.534Z,21.01
2016-09-22T07:02:02.552Z,21.03
2016-09-22T07:03:02.548Z,21.03
2016-09-22T07:04:02.544Z,21.17
2016-09-22T07:05:02.558Z,21.22
2016-09-22T07:06:02.559Z,21.4
2016-09-22T07:07:02.571Z,21.38
2016-09-22T07:08:02.580Z,21.49
2016-09-22T07:09:02.577Z,21.49
2016-09-22T07:10:02.586Z,21.5
2016-09-22T07:11:02.593Z,21.54
2016-09-22T07:12:02.594Z,21.61
2016-09-22T07:13:02.602Z,21.71
2016-09-22T07:14:02.609Z,21.79
2016-09-22T07:15:02.623Z,21.8
2016-09-22T07:16:02.631Z,21.82
2016-09-22T07:17:03.132Z,21.83
2016-09-22T07:18:03.193Z,21.77
2016-09-22T07:19:03.094Z,21.9
2016-09-22T07:20:03.662Z,21.98
2016-09-22T07:21:03.115Z,22.05
2016-09-22T07:22:02.668Z,22.06
2016-09-22T07:23:02.687Z,22.02
2016-09-22T07:24:02.687Z,22.07
2016-09-22T07:25:02.694Z,21.91
2016-09-22T07:26:02.755Z,21.91
2016-09-22T07:27:04.111Z,21.96
2016-09-22T07:28:03.069Z,21.98
2016-09-22T07:29:03.033Z,22.1
2016-09-22T07:30:03.337Z,22.27
2016-09-22T07:31:02.746Z,22.33
2016-09-22T07:32:02.749Z,22.4
2016-09-22T07:33:02.765Z,22.42
2016-09-22T07:34:02.771Z,22.37
2016-09-22T07:35:02.783Z,22.28
2016-09-22T07:36:02.782Z,22.35
2016-09-22T07:37:02.799Z,22.33
2016-09-22T07:38:02.800Z,22.36
2016-09-22T07:39:02.810Z,22.22
2016-09-22T07:40:02.812Z,22.18
2016-09-22T07:41:02.823Z,22.1
2016-09-22T07:42:03.141Z,21.94
2016-09-22T07:43:02.838Z,21.9
2016-09-22T07:44:04.366Z,21.83
2016-09-22T07:45:03.902Z,21.8
2016-09-22T07:46:03.674Z,21.77
2016-09-22T07:47:03.442Z,21.62
2016-09-22T07:48:02.887Z,21.49
2016-09-22T07:49:03.354Z,21.37
2016-09-22T07:50:02.894Z,21.38
2016-09-22T07:51:03.015Z,21.19
2016-09-22T07:52:02.906Z,21.1
2016-09-22T07:53:04.913Z,20.97
2016-09-22T07:54:04.349Z,20.8
2016-09-22T07:55:04.207Z,20.57
2016-09-22T07:56:03.985Z,20.55
2016-09-22T07:57:03.495Z,20.35
2016-09-22T07:58:02.957Z,20.28
2016-09-22T07:59:02.951Z,20.08
2016-09-22T08:00:02.957Z,20.08
2016-09-22T08:01:02.961Z,19.84
2016-09-22T08:02:02.967Z,19.71
2016-09-22T08:03:02.976Z,19.43
2016-09-22T08:04:02.981Z,19.31
2016-09-22T08:05:02.977Z,19.04
2016-09-22T08:06:02.988Z,18.91
2016-09-22T08:07:02.995Z,18.8
2016-09-22T08:08:02.989Z,18.57
2016-09-22T08:09:02.995Z,18.47
2016-09-22T08:10:02.996Z,18.3
2016-09-22T08:11:03.000Z,18.26
2016-09-22T08:12:02.996Z,18.14
2016-09-22T08:13:03.003Z,18.11
2016-09-22T08:14:03.023Z,18.05
2016-09-22T08:15:03.004Z,17.92
2016-09-22T08:16:03.003Z,17.92
2016-09-22T08:17:02.999Z,17.82
2016-09-22T08:18:03.003Z,17.82
2016-09-22T08:19:03.020Z,17.68
2016-09-22T08:20:03.003Z,17.68
2016-09-22T08:21:03.001Z,17.59
2016-09-22T08:22:03.010Z,17.49
2016-09-22T08:23:03.000Z,17.38
2016-09-22T08:24:03.320Z,17.4
2016-09-22T08:25:03.007Z,17.34
2016-09-22T08:26:03.300Z,17.23
2016-09-22T08:27:03.009Z,17.07
2016-09-22T08:28:02.999Z,17.08
2016-09-22T08:29:03.003Z,17.23
2016-09-22T08:30:02.997Z,17.04
2016-09-22T08:31:02.997Z,17.15
2016-09-22T08:32:02.998Z,17.07
2016-09-22T08:33:02.998Z,16.98
2016-09-22T08:34:02.995Z,17.01
2016-09-22T08:35:03.991Z,17
2016-09-22T08:36:04.285Z,17.04
2016-09-22T08:37:02.988Z,16.97
2016-09-22T08:38:03.455Z,16.98
2016-09-22T08:39:02.979Z,16.96
2016-09-22T08:40:03.731Z,17.01
2016-09-22T08:41:02.973Z,17.01
2016-09-22T08:42:02.981Z,16.96
2016-09-22T08:43:02.974Z,16.98
2016-09-22T08:44:03.072Z,16.94
2016-09-22T08:45:03.380Z,16.96
2016-09-22T08:47:02.970Z,17
2016-09-22T08:48:03.414Z,17.01
2016-09-22T08:49:02.965Z,16.98
2016-09-22T08:50:02.962Z,16.96
2016-09-22T08:51:02.959Z,17.03
2016-09-22T08:52:02.951Z,16.97
2016-09-22T08:53:02.949Z,17.01
2016-09-22T08:54:02.964Z,17.06
2016-09-22T08:55:02.950Z,17.15
2016-09-22T08:56:02.943Z,17.11
2016-09-22T08:57:02.938Z,17.06
2016-09-22T08:58:02.945Z,17.03
2016-09-22T08:59:02.936Z,17.07
2016-09-22T09:00:02.929Z,17.07
2016-09-22T09:01:02.938Z,17.06
2016-09-22T09:03:03.939Z,17.15
2016-09-22T09:04:05.509Z,17.18
2016-09-22T09:05:05.222Z,17.19
2016-09-22T09:06:03.849Z,17.11
2016-09-22T09:07:02.921Z,17.11
2016-09-22T09:08:02.928Z,17.21
2016-09-22T09:09:02.916Z,17.18
2016-09-22T09:10:02.919Z,17.11
2016-09-22T09:12:04.421Z,17.12
2016-09-22T09:13:05.958Z,17.19
2016-09-22T09:14:02.906Z,17.16
2016-09-22T09:15:02.902Z,17.19
2016-09-22T09:16:03.206Z,17.23
2016-09-22T09:17:02.894Z,17.25
2016-09-22T09:18:02.894Z,17.33
2016-09-22T09:19:02.896Z,17.28
2016-09-22T09:20:02.894Z,17.38
2016-09-22T09:21:02.885Z,17.44
2016-09-22T09:22:02.884Z,17.37
2016-09-22T09:23:02.883Z,17.36
2016-09-22T09:24:02.877Z,17.4
2016-09-22T09:25:02.876Z,17.41
2016-09-22T09:26:02.880Z,17.38
2016-09-22T09:27:02.887Z,17.36
2016-09-22T09:28:02.871Z,17.41
2016-09-22T09:29:02.878Z,17.31
2016-09-22T09:30:02.864Z,17.38
2016-09-22T09:31:02.863Z,17.46
2016-09-22T09:32:02.864Z,17.48
2016-09-22T09:33:02.863Z,17.51
2016-09-22T09:34:02.858Z,17.52
2016-09-22T09:35:02.859Z,17.58
2016-09-22T09:36:02.851Z,17.56
2016-09-22T09:37:02.848Z,17.63
2016-09-22T09:38:02.843Z,17.68
2016-09-22T09:39:02.847Z,17.66
2016-09-22T09:40:02.836Z,17.74
2016-09-22T09:41:02.846Z,17.71
2016-09-22T09:42:02.840Z,17.78
2016-09-22T09:43:02.835Z,17.78
2016-09-22T09:44:02.830Z,17.74
2016-09-22T09:45:02.836Z,17.75
2016-09-22T09:46:02.826Z,17.75
2016-09-22T09:47:02.826Z,17.81
2016-09-22T09:48:02.834Z,17.75
2016-09-22T09:49:02.824Z,17.84
2016-09-22T09:50:02.824Z,17.79
2016-09-22T09:51:02.811Z,17.84
2016-09-22T09:52:02.823Z,17.86
2016-09-22T09:53:03.610Z,17.79
2016-09-22T09:54:03.117Z,17.93
2016-09-22T09:55:03.963Z,17.92
2016-09-22T09:56:02.810Z,17.9
2016-09-22T09:57:03.107Z,17.9
2016-09-22T09:58:02.849Z,17.92
2016-09-22T09:59:02.801Z,17.99
2016-09-22T10:00:02.796Z,18.03
2016-09-22T10:01:02.792Z,17.96
2016-09-22T10:02:04.092Z,17.99
2016-09-22T10:03:03.561Z,18
2016-09-22T10:04:02.995Z,18.12
2016-09-22T10:05:02.979Z,18.11
2016-09-22T10:06:02.790Z,18.12
2016-09-22T10:07:02.790Z,18.03
2016-09-22T10:08:02.787Z,17.96
2016-09-22T10:09:02.777Z,18.05
2016-09-22T10:10:02.779Z,18.1
2016-09-22T10:11:02.774Z,18.1
2016-09-22T10:12:02.777Z,18.11
2016-09-22T10:13:02.770Z,18.07
2016-09-22T10:14:02.773Z,18.07
2016-09-22T10:15:02.764Z,18.12
2016-09-22T10:16:02.757Z,18.12
2016-09-22T10:17:02.761Z,18.14
2016-09-22T10:18:03.064Z,18.08
2016-09-22T10:19:02.768Z,18.14
2016-09-22T10:20:04.034Z,18.17
2016-09-22T10:22:03.769Z,18.21
2016-09-22T10:23:03.963Z,18.23
2016-09-22T10:24:02.936Z,18.15
2016-09-22T10:25:02.743Z,18.17
2016-09-22T10:26:02.755Z,18.25
2016-09-22T10:27:02.743Z,18.29
2016-09-22T10:28:03.043Z,18.33
2016-09-22T10:30:20.479Z,18.21
2016-09-22T10:31:04.544Z,18.32
2016-09-22T10:32:04.701Z,18.21
2016-09-22T10:33:03.714Z,18.23
2016-09-22T10:34:02.731Z,18.29
2016-09-22T10:35:03.234Z,18.32
2016-09-22T10:36:03.247Z,18.35
2016-09-22T10:37:02.722Z,18.36
2016-09-22T10:38:03.022Z,18.42
2016-09-22T10:39:02.723Z,18.39
2016-09-22T10:40:02.716Z,18.36
2016-09-22T10:41:02.720Z,18.39
2016-09-22T10:42:02.710Z,18.42
2016-09-22T10:43:02.961Z,18.52
2016-09-22T10:44:02.706Z,18.42
2016-09-22T10:45:02.709Z,18.42
2016-09-22T10:46:02.702Z,18.48
2016-09-22T10:47:02.700Z,18.47
2016-09-22T10:48:02.698Z,18.55
2016-09-22T10:49:02.705Z,18.5
2016-09-22T10:50:02.704Z,18.55
2016-09-22T10:51:02.700Z,18.65
2016-09-22T10:52:02.696Z,18.66
2016-09-22T10:53:02.706Z,18.69
2016-09-22T10:54:02.688Z,18.69
2016-09-22T10:55:02.690Z,18.7
2016-09-22T10:56:02.683Z,18.69
2016-09-22T10:57:02.685Z,18.57
2016-09-22T10:58:02.681Z,18.65
2016-09-22T10:59:02.677Z,18.67
2016-09-22T11:00:02.678Z,18.7
2016-09-22T11:01:02.680Z,18.63
2016-09-22T11:02:02.675Z,18.72
2016-09-22T11:03:02.675Z,18.67
2016-09-22T11:04:02.668Z,18.66
2016-09-22T11:05:02.671Z,18.7
2016-09-22T11:06:02.666Z,18.7
2016-09-22T11:07:02.669Z,18.81
2016-09-22T11:08:02.670Z,18.73
2016-09-22T11:09:02.662Z,18.8
2016-09-22T11:10:02.667Z,18.82
2016-09-22T11:11:02.915Z,18.82
2016-09-22T11:12:02.666Z,18.81
2016-09-22T11:13:03.058Z,18.78
2016-09-22T11:14:02.656Z,18.95
2016-09-22T11:15:02.654Z,18.9
2016-09-22T11:16:03.304Z,18.91
2016-09-22T11:17:02.648Z,18.92
2016-09-22T11:18:02.656Z,18.95
2016-09-22T11:19:02.651Z,18.95
2016-09-22T11:20:02.893Z,18.94
2016-09-22T11:21:02.745Z,18.94
2016-09-22T11:22:02.642Z,18.92
2016-09-22T11:23:02.704Z,18.99
2016-09-22T11:24:02.689Z,18.91
2016-09-22T11:25:02.639Z,18.94
2016-09-22T11:26:02.735Z,18.91
2016-09-22T11:27:02.630Z,18.99
2016-09-22T11:28:02.631Z,19
2016-09-22T11:29:02.634Z,18.91
2016-09-22T11:30:02.630Z,18.95
2016-09-22T11:31:02.627Z,19.04
2016-09-22T11:32:02.625Z,19.02
2016-09-22T11:33:02.622Z,19.04
2016-09-22T11:34:02.619Z,19.07
2016-09-22T11:35:02.627Z,19
2016-09-22T11:36:02.617Z,19.04
2016-09-22T11:37:02.620Z,19.04
2016-09-22T11:38:02.619Z,18.98
2016-09-22T11:39:03.835Z,19
2016-09-22T11:40:04.149Z,19.02
2016-09-22T11:41:02.606Z,19
2016-09-22T11:42:02.615Z,18.99
2016-09-22T11:43:03.488Z,19
2016-09-22T11:44:02.605Z,19.02
2016-09-22T11:45:02.606Z,18.98
2016-09-22T11:46:02.604Z,18.99
2016-09-22T11:47:02.606Z,19.07
2016-09-22T11:48:03.853Z,19
2016-09-22T11:49:02.604Z,19.13
2016-09-22T11:50:02.806Z,19.06
2016-09-22T11:51:02.599Z,19.04
2016-09-22T11:52:03.946Z,19.04
2016-09-22T11:53:02.594Z,19.14
2016-09-22T11:54:02.595Z,19.08
2016-09-22T11:55:02.598Z,19.11
2016-09-22T11:56:02.587Z,19.16
2016-09-22T11:57:02.598Z,19.16
2016-09-22T11:58:02.590Z,19.13
2016-09-22T11:59:02.589Z,19.14
2016-09-22T12:00:02.586Z,19.18
2016-09-22T12:01:02.899Z,19.19
2016-09-22T12:02:02.584Z,19.22
2016-09-22T12:03:02.585Z,19.33
2016-09-22T12:04:02.581Z,19.31
2016-09-22T12:05:02.585Z,19.25
2016-09-22T12:06:02.577Z,19.29
2016-09-22T12:07:02.574Z,19.36
2016-09-22T12:08:02.597Z,19.29
2016-09-22T12:09:02.580Z,19.41
2016-09-22T12:10:02.571Z,19.36
2016-09-22T12:11:02.577Z,19.37
2016-09-22T12:12:02.598Z,19.4
2016-09-22T12:13:02.572Z,19.4
2016-09-22T12:14:02.569Z,19.4
2016-09-22T12:15:02.569Z,19.33
2016-09-22T12:16:02.564Z,19.5
2016-09-22T12:17:02.574Z,19.51
2016-09-22T12:18:02.565Z,19.44
2016-09-22T12:19:02.565Z,19.55
2016-09-22T12:20:02.562Z,19.65
2016-09-22T12:21:02.565Z,19.62
2016-09-22T12:22:02.554Z,19.62
2016-09-22T12:23:02.556Z,19.65
2016-09-22T12:24:02.557Z,19.66
2016-09-22T12:25:02.555Z,19.65
2016-09-22T12:26:02.558Z,19.71
2016-09-22T12:27:02.555Z,19.74
2016-09-22T12:28:02.565Z,19.66
2016-09-22T12:29:03.458Z,19.69
2016-09-22T12:30:03.555Z,19.73
2016-09-22T12:31:02.842Z,19.78
2016-09-22T12:32:17.459Z,19.76
2016-09-22T12:33:02.543Z,19.76
2016-09-22T12:34:03.143Z,19.84
2016-09-22T12:35:02.540Z,19.78
2016-09-22T12:36:02.559Z,19.87
2016-09-22T12:37:02.541Z,19.78
2016-09-22T12:38:03.693Z,19.86
2016-09-22T12:39:18.303Z,19.76
2016-09-22T12:40:03.489Z,19.74
2016-09-22T12:41:02.539Z,19.71
2016-09-22T12:42:02.539Z,19.84
2016-09-22T12:43:02.786Z,19.87
2016-09-22T12:44:02.537Z,19.78
2016-09-22T12:45:02.536Z,19.76
2016-09-22T12:46:02.533Z,19.88
2016-09-22T12:47:02.541Z,19.83
2016-09-22T12:48:02.831Z,19.83
2016-09-22T12:49:02.531Z,19.83
2016-09-22T12:50:02.528Z,19.92
2016-09-22T12:51:02.527Z,19.99
2016-09-22T12:52:02.530Z,19.88
2016-09-22T12:53:02.773Z,19.87
2016-09-22T12:54:02.528Z,19.86
2016-09-22T12:55:02.524Z,19.92
2016-09-22T12:56:02.525Z,19.95
2016-09-22T12:57:03.676Z,19.92
2016-09-22T12:58:02.781Z,19.92
2016-09-22T12:59:03.237Z,20.03
2016-09-22T13:00:03.568Z,20.11
2016-09-22T13:01:02.653Z,20.11
2016-09-22T13:02:03.461Z,20.11
2016-09-22T13:03:02.517Z,20.08
2016-09-22T13:04:02.517Z,20.05
2016-09-22T13:05:02.513Z,20.11
2016-09-22T13:06:03.974Z,20.13
2016-09-22T13:07:02.810Z,20.08
2016-09-22T13:08:03.671Z,20.2
2016-09-22T13:09:04.129Z,20.23
2016-09-22T13:10:03.343Z,20.31
2016-09-22T13:11:02.524Z,20.32
2016-09-22T13:12:02.509Z,20.42
2016-09-22T13:13:02.513Z,20.47
2016-09-22T13:14:02.510Z,20.55
2016-09-22T13:15:02.509Z,20.55
2016-09-22T13:16:02.515Z,20.62
2016-09-22T13:17:02.504Z,20.64